Time;durP1;ratioP1;P1;durP2;ratioP2;P2;SDS_P1;SDS_P2;PMS_P1;PMS_P2;Temp;Humidity;BMP_temperature;BMP_pressure;BME280_temperature;BME280_humidity;BME280_pressure;Samples;Min_cycle;Max_cycle;Signal;HPM_P1;HPM_P2
2022/10/24 00:00:10;;;;;;;0.98;0.88;;;19.20;54.20;;;;;;5135128;28;20189;-11
2022/10/24 00:02:36;;;;;;;1.35;1.10;;;19.20;54.20;;;;;;5134202;27;20062;-11
2022/10/24 00:05:02;;;;;;;0.90;0.90;;;19.30;54.20;;;;;;5134578;28;20051;-11
2022/10/24 00:07:27;;;;;;;0.85;0.85;;;19.20;54.10;;;;;;5134708;28;20047;-11
2022/10/24 00:09:53;;;;;;;1.20;0.98;;;19.30;54.20;;;;;;5134520;28;20133;-11
2022/10/24 00:12:19;;;;;;;1.35;1.17;;;19.30;54.20;;;;;;5116195;28;20058;-11
2022/10/24 00:14:45;;;;;;;2.33;0.93;;;19.30;54.20;;;;;;5135013;28;20054;-11
2022/10/24 00:17:11;;;;;;;1.00;0.90;;;19.20;54.10;;;;;;5135046;28;20059;-11
2022/10/24 00:19:37;;;;;;;1.02;0.93;;;19.30;54.20;;;;;;5134488;28;20055;-11
2022/10/24 00:22:03;;;;;;;1.52;1.02;;;19.30;54.20;;;;;;5134814;28;20100;-11
2022/10/24 00:24:28;;;;;;;0.77;0.77;;;19.20;54.20;;;;;;5134477;28;20054;-11
2022/10/24 00:26:54;;;;;;;0.90;0.88;;;19.20;54.20;;;;;;5134507;28;20043;-11
2022/10/24 00:29:21;;;;;;;0.70;0.70;;;19.20;54.20;;;;;;5134754;28;20058;-11
2022/10/24 00:31:47;;;;;;;1.23;1.00;;;19.20;54.20;;;;;;5134636;28;20054;-11
2022/10/24 00:34:14;;;;;;;1.00;0.90;;;19.20;54.10;;;;;;5134450;28;20078;-11
2022/10/24 00:36:39;;;;;;;1.08;0.93;;;19.20;54.20;;;;;;5134552;28;20046;-11
2022/10/24 00:39:05;;;;;;;0.80;0.80;;;19.20;54.20;;;;;;5134608;28;20055;-11
2022/10/24 00:41:34;;;;;;;0.90;0.90;;;19.20;54.20;;;;;;5134188;28;20054;-11
2022/10/24 00:44:18;;;;;;;1.30;1.10;;;19.20;54.20;;;;;;5134571;28;20046;-11
2022/10/24 00:46:48;;;;;;;0.90;0.90;;;19.20;54.20;;;;;;5134155;28;20047;-11
2022/10/24 00:49:17;;;;;;;1.42;1.00;;;19.20;54.20;;;;;;5134515;28;20062;-11
2022/10/24 00:51:45;;;;;;;1.00;0.90;;;19.20;54.20;;;;;;5134217;28;20047;-11
2022/10/24 00:54:13;;;;;;;1.08;1.00;;;19.20;54.10;;;;;;5134478;28;20184;-11
2022/10/24 00:56:52;;;;;;;0.80;0.80;;;19.20;54.10;;;;;;5133850;28;20054;-11
2022/10/24 00:59:19;;;;;;;0.95;0.90;;;19.20;54.10;;;;;;5134367;28;20142;-11
2022/10/24 01:01:46;;;;;;;1.10;1.00;;;19.20;54.10;;;;;;5134499;28;20051;-11
2022/10/24 01:04:12;;;;;;;1.00;0.95;;;19.20;54.10;;;;;;5116096;28;20413;-11
2022/10/24 01:07:26;;;;;;;0.90;0.73;;;19.20;54.10;;;;;;5133696;28;20043;-12
2022/10/24 01:10:20;;;;;;;1.00;0.90;;;19.20;54.10;;;;;;5050771;28;20065;-10
2022/10/24 01:13:15;;;;;;;1.08;0.98;;;19.20;54.10;;;;;;5049879;28;20049;-11
2022/10/24 01:15:57;;;;;;;0.80;0.80;;;19.20;54.10;;;;;;5126418;28;20043;-11
2022/10/24 01:18:54;;;;;;;0.90;0.90;;;19.30;54.20;;;;;;5133555;28;20482;-11
2022/10/24 01:21:24;;;;;;;1.27;0.93;;;19.20;54.10;;;;;;5104172;28;20100;-11
2022/10/24 01:23:56;;;;;;;1.05;0.95;;;19.20;54.10;;;;;;5134185;28;20078;-11
2022/10/24 01:26:56;;;;;;;1.30;1.08;;;19.20;54.10;;;;;;5134240;28;20043;-11
2022/10/24 01:29:43;;;;;;;0.80;0.80;;;19.20;54.10;;;;;;5133578;28;20079;-11
2022/10/24 01:32:21;;;;;;;0.77;0.77;;;19.20;54.10;;;;;;5133838;28;20095;-11
2022/10/24 01:35:24;;;;;;;0.98;0.98;;;19.20;54.10;;;;;;5133641;28;20047;-11
2022/10/24 01:38:07;;;;;;;1.45;0.90;;;19.20;54.10;;;;;;5102696;28;20055;-11
2022/10/24 01:40:54;;;;;;;1.25;0.88;;;19.20;54.10;;;;;;5133428;28;20055;-11
2022/10/24 01:43:26;;;;;;;0.80;0.80;;;19.20;54.10;;;;;;5133458;28;20406;-11
2022/10/24 01:46:00;;;;;;;1.10;1.00;;;19.20;54.10;;;;;;5133546;28;20096;-11
2022/10/24 01:48:30;;;;;;;0.90;0.90;;;19.20;54.10;;;;;;5133471;28;20055;-11
2022/10/24 01:50:59;;;;;;;0.80;0.80;;;19.20;54.10;;;;;;5133321;28;20047;-11
2022/10/24 01:53:28;;;;;;;1.00;1.00;;;19.20;54.10;;;;;;5133561;28;20376;-11
2022/10/24 01:55:54;;;;;;;1.00;0.90;;;19.20;54.10;;;;;;5133504;28;20478;-11
2022/10/24 01:58:19;;;;;;;1.00;0.90;;;19.20;54.20;;;;;;5133340;28;20081;-11
2022/10/24 02:00:47;;;;;;;0.88;0.88;;;19.20;54.10;;;;;;5133159;28;20053;-11
2022/10/24 02:03:29;;;;;;;0.90;0.85;;;19.20;54.10;;;;;;5133458;28;20440;-11
2022/10/24 02:06:02;;;;;;;1.13;1.00;;;19.20;54.10;;;;;;5133408;28;20058;-11
2022/10/24 02:08:33;;;;;;;0.95;0.95;;;19.20;54.10;;;;;;5133033;28;20516;-11
2022/10/24 02:11:02;;;;;;;1.05;0.98;;;19.20;54.10;;;;;;5133095;28;20126;-11
2022/10/24 02:13:39;;;;;;;0.80;0.80;;;19.20;54.10;;;;;;5115062;28;20410;-11
2022/10/24 02:16:05;;;;;;;1.17;1.08;;;19.20;54.10;;;;;;5132581;28;20456;-11
2022/10/24 02:18:33;;;;;;;0.93;0.90;;;19.20;54.10;;;;;;5133018;28;20043;-11
2022/10/24 02:21:30;;;;;;;1.10;1.00;;;19.20;54.20;;;;;;5132767;28;20047;-11
2022/10/24 02:24:25;;;;;;;1.00;1.00;;;19.20;54.20;;;;;;5132950;27;20383;-11
2022/10/24 02:26:56;;;;;;;0.80;0.80;;;19.20;54.10;;;;;;5136744;28;20390;-11
2022/10/24 02:29:31;;;;;;;1.15;1.05;;;19.20;54.10;;;;;;5136598;28;20043;-11
2022/10/24 02:31:57;;;;;;;0.80;0.80;;;19.20;54.20;;;;;;5136449;28;20487;-11
2022/10/24 02:34:27;;;;;;;1.00;1.00;;;19.20;54.10;;;;;;5136516;28;20387;-11
2022/10/24 02:36:54;;;;;;;0.95;0.95;;;19.20;54.10;;;;;;5136306;28;20181;-11
2022/10/24 02:39:22;;;;;;;0.80;0.80;;;19.20;54.10;;;;;;5136063;28;20047;-11
2022/10/24 02:41:50;;;;;;;0.70;0.70;;;19.20;54.20;;;;;;5136266;28;20051;-11
2022/10/24 02:44:18;;;;;;;0.85;0.85;;;19.20;54.10;;;;;;5136184;28;20071;-11
2022/10/24 02:46:45;;;;;;;0.98;0.90;;;19.20;54.20;;;;;;5136485;28;20054;-11
2022/10/24 02:49:11;;;;;;;1.17;1.08;;;19.20;54.20;;;;;;5135886;28;20411;-11
2022/10/24 02:51:41;;;;;;;1.15;1.05;;;19.20;54.20;;;;;;5136520;28;20086;-11
2022/10/24 02:54:07;;;;;;;0.80;0.80;;;19.20;54.10;;;;;;5117959;28;20043;-11
2022/10/24 02:56:35;;;;;;;0.85;0.80;;;19.20;54.20;;;;;;5136230;28;20043;-11
2022/10/24 02:59:00;;;;;;;1.02;0.93;;;19.20;54.20;;;;;;5135943;28;20471;-11
2022/10/24 03:01:26;;;;;;;1.08;0.90;;;19.20;54.20;;;;;;5136300;28;20057;-11
2022/10/24 03:03:51;;;;;;;0.93;0.93;;;19.20;54.20;;;;;;5135890;28;20058;-11
2022/10/24 03:06:18;;;;;;;0.95;0.90;;;19.20;54.20;;;;;;5135919;28;20110;-11
2022/10/24 03:08:43;;;;;;;0.80;0.80;;;19.20;54.20;;;;;;5136184;28;20395;-11
2022/10/24 03:11:09;;;;;;;1.17;1.10;;;19.20;54.30;;;;;;5135655;28;20047;-11
2022/10/24 03:13:35;;;;;;;1.27;1.17;;;19.30;54.50;;;;;;5136299;28;20147;-11
2022/10/24 03:16:00;;;;;;;0.80;0.80;;;19.30;54.20;;;;;;5135664;28;20486;-11
2022/10/24 03:18:26;;;;;;;1.15;1.00;;;19.40;54.20;;;;;;5135546;28;20055;-11
2022/10/24 03:20:52;;;;;;;1.42;0.98;;;19.40;54.20;;;;;;5135639;28;20482;-11
2022/10/24 03:23:18;;;;;;;0.80;0.80;;;19.40;54.20;;;;;;5135586;28;20099;-11
2022/10/24 03:25:44;;;;;;;0.70;0.70;;;19.40;54.20;;;;;;5135588;28;20054;-11
2022/10/24 03:28:10;;;;;;;1.10;1.05;;;19.50;54.20;;;;;;5135857;28;20051;-11
2022/10/24 03:30:35;;;;;;;1.17;0.90;;;19.50;54.20;;;;;;5135363;28;20108;-11
2022/10/24 03:33:02;;;;;;;1.45;1.15;;;19.50;54.10;;;;;;5135736;28;20125;-11
2022/10/24 03:35:29;;;;;;;0.85;0.85;;;19.50;54.10;;;;;;5134965;27;20051;-11
2022/10/24 03:37:56;;;;;;;1.25;0.88;;;19.60;54.10;;;;;;5134839;28;20066;-11
2022/10/24 03:40:23;;;;;;;1.00;0.90;;;19.60;54.10;;;;;;5135288;28;20085;-11
2022/10/24 03:42:49;;;;;;;1.55;1.02;;;19.60;54.10;;;;;;5135747;28;20074;-11
2022/10/24 03:45:14;;;;;;;1.08;0.98;;;19.60;54.10;;;;;;5135148;28;20487;-11
2022/10/24 03:47:40;;;;;;;1.38;0.98;;;19.60;54.10;;;;;;5134940;28;20138;-11
2022/10/24 03:50:06;;;;;;;0.93;0.93;;;19.60;54.20;;;;;;5134803;28;20062;-11
2022/10/24 03:52:32;;;;;;;1.15;1.00;;;19.60;54.20;;;;;;5134816;28;20542;-11
2022/10/24 03:54:58;;;;;;;1.80;1.00;;;19.70;54.20;;;;;;5134765;28;20522;-11
2022/10/24 03:57:23;;;;;;;1.73;1.02;;;19.70;54.30;;;;;;5135513;28;20039;-11
2022/10/24 03:59:49;;;;;;;1.25;1.10;;;19.70;54.30;;;;;;5115392;28;20503;-11
2022/10/24 04:02:15;;;;;;;1.00;0.90;;;19.60;54.20;;;;;;5135305;28;20055;-11
2022/10/24 04:04:41;;;;;;;0.70;0.70;;;19.70;54.30;;;;;;5135413;28;20074;-11
2022/10/24 04:07:06;;;;;;;0.70;0.70;;;19.70;54.20;;;;;;5134897;28;20052;-11
2022/10/24 04:09:32;;;;;;;1.10;0.90;;;19.70;54.20;;;;;;5134991;28;20103;-11
2022/10/24 04:11:58;;;;;;;0.95;0.85;;;19.70;54.30;;;;;;5134713;28;20151;-11
2022/10/24 04:14:23;;;;;;;0.90;0.90;;;19.60;54.30;;;;;;5135009;28;20544;-11
2022/10/24 04:16:49;;;;;;;0.95;0.95;;;19.60;54.30;;;;;;5134617;28;20047;-11
2022/10/24 04:19:18;;;;;;;1.08;0.98;;;19.70;54.40;;;;;;5135087;28;20097;-11
2022/10/24 04:21:45;;;;;;;1.10;1.00;;;19.60;54.40;;;;;;5134630;28;20047;-11
2022/10/24 04:24:11;;;;;;;1.15;1.00;;;19.60;54.40;;;;;;5134650;28;20054;-11
2022/10/24 04:26:37;;;;;;;0.90;0.90;;;19.60;54.50;;;;;;5116087;28;20398;-11
2022/10/24 04:29:02;;;;;;;1.00;0.90;;;19.60;55.10;;;;;;5134466;28;20047;-11
2022/10/24 04:31:28;;;;;;;1.17;1.00;;;19.60;54.50;;;;;;5134451;28;20047;-11
2022/10/24 04:33:54;;;;;;;0.93;0.90;;;19.60;54.50;;;;;;5134999;28;20096;-11
2022/10/24 04:36:20;;;;;;;1.30;1.00;;;19.50;54.60;;;;;;5134216;28;20047;-11
2022/10/24 04:38:45;;;;;;;1.10;1.00;;;19.60;54.60;;;;;;5134420;28;20051;-11
2022/10/24 04:41:11;;;;;;;1.23;1.02;;;19.60;54.50;;;;;;5134335;28;20069;-11
2022/10/24 04:43:37;;;;;;;0.80;0.80;;;19.60;54.50;;;;;;5134383;28;20523;-11
2022/10/24 04:46:03;;;;;;;0.90;0.90;;;19.60;54.50;;;;;;5134083;28;20367;-11
2022/10/24 04:48:29;;;;;;;0.90;0.90;;;19.50;54.50;;;;;;5134137;27;20086;-11
2022/10/24 04:50:54;;;;;;;1.10;0.90;;;19.50;54.60;;;;;;5134351;28;20075;-11
2022/10/24 04:53:20;;;;;;;0.82;0.80;;;19.50;54.70;;;;;;5134198;28;20078;-11
2022/10/24 04:55:45;;;;;;;0.98;0.90;;;19.50;54.70;;;;;;5133811;28;20510;-11
2022/10/24 04:58:11;;;;;;;1.05;0.82;;;19.40;54.80;;;;;;5134155;28;20053;-11
2022/10/24 05:00:37;;;;;;;0.88;0.77;;;19.40;54.80;;;;;;5134336;28;20059;-11
2022/10/24 05:03:03;;;;;;;1.02;0.95;;;19.40;54.90;;;;;;5134230;28;20074;-11
2022/10/24 05:05:28;;;;;;;1.25;1.00;;;19.40;55.00;;;;;;5133895;28;20489;-11
2022/10/24 05:07:55;;;;;;;0.90;0.90;;;19.40;55.00;;;;;;5114463;28;20423;-11
2022/10/24 05:10:21;;;;;;;1.10;1.00;;;19.40;55.10;;;;;;5133932;28;20047;-11
2022/10/24 05:12:46;;;;;;;0.93;0.88;;;19.30;55.00;;;;;;5133567;28;20107;-11
2022/10/24 05:15:13;;;;;;;1.05;0.90;;;19.40;55.10;;;;;;5133535;28;20046;-11
2022/10/24 05:17:40;;;;;;;0.93;0.80;;;19.40;55.10;;;;;;5133750;28;20087;-11
2022/10/24 05:20:07;;;;;;;1.00;0.90;;;19.40;55.00;;;;;;5133403;28;20051;-11
2022/10/24 05:22:33;;;;;;;0.80;0.80;;;19.40;55.50;;;;;;5133393;28;20051;-11
2022/10/24 05:24:59;;;;;;;0.85;0.85;;;19.40;55.00;;;;;;5115158;28;20054;-11
2022/10/24 05:27:25;;;;;;;0.90;0.90;;;19.40;55.00;;;;;;5133966;28;20062;-11
2022/10/24 05:29:51;;;;;;;1.00;0.90;;;19.40;54.90;;;;;;5133270;28;20055;-11
2022/10/24 05:32:17;;;;;;;0.80;0.80;;;19.50;55.00;;;;;;5133678;28;20062;-11
2022/10/24 05:34:43;;;;;;;1.10;0.80;;;19.50;54.90;;;;;;5134113;28;20051;-11
2022/10/24 05:37:08;;;;;;;0.93;0.93;;;19.50;54.90;;;;;;5133970;28;20520;-11
2022/10/24 05:39:35;;;;;;;1.55;1.10;;;19.50;54.90;;;;;;5133173;28;20055;-11
2022/10/24 05:42:00;;;;;;;1.00;1.00;;;19.50;54.90;;;;;;5133485;28;20054;-11
2022/10/24 05:44:26;;;;;;;2.95;1.60;;;19.50;54.80;;;;;;5133873;28;20047;-11
2022/10/24 05:46:52;;;;;;;1.00;0.90;;;19.60;54.80;;;;;;5133649;28;20055;-11
2022/10/24 05:49:17;;;;;;;1.73;1.00;;;19.60;54.70;;;;;;5133180;28;20051;-11
2022/10/24 05:51:43;;;;;;;0.80;0.80;;;19.60;54.70;;;;;;5133311;28;20047;-11
2022/10/24 05:54:09;;;;;;;1.50;1.05;;;19.60;55.30;;;;;;5133460;28;20509;-11
2022/10/24 05:56:34;;;;;;;0.95;0.85;;;19.60;54.70;;;;;;5133094;28;20099;-11
2022/10/24 05:59:00;;;;;;;1.02;0.93;;;19.60;54.70;;;;;;5133265;27;20059;-11
2022/10/24 06:01:25;;;;;;;5.60;1.33;;;19.60;54.80;;;;;;5136852;28;20457;-11
2022/10/24 06:03:51;;;;;;;3.75;1.10;;;19.60;54.90;;;;;;5136802;28;20063;-11
2022/10/24 06:06:17;;;;;;;1.50;1.25;;;19.60;55.10;;;;;;5137371;28;20043;-11
2022/10/24 06:08:42;;;;;;;2.42;1.23;;;19.60;55.20;;;;;;5136425;28;20081;-11
2022/10/24 06:11:10;;;;;;;2.13;1.15;;;19.60;55.20;;;;;;5136441;28;20058;-11
2022/10/24 06:13:36;;;;;;;1.88;1.33;;;19.60;55.40;;;;;;5136803;28;20047;-11
2022/10/24 06:16:02;;;;;;;0.82;0.75;;;19.60;55.30;;;;;;5136381;28;20074;-11
2022/10/24 06:18:28;;;;;;;2.22;1.20;;;19.60;55.20;;;;;;5136482;28;20075;-11
2022/10/24 06:20:53;;;;;;;1.38;1.00;;;19.60;55.20;;;;;;5136416;28;20051;-11
2022/10/24 06:23:19;;;;;;;1.13;1.02;;;19.60;55.20;;;;;;5136645;28;20471;-11
2022/10/24 06:25:45;;;;;;;1.25;0.95;;;19.60;55.20;;;;;;5136596;28;20368;-11
2022/10/24 06:28:13;;;;;;;1.55;1.10;;;19.60;55.10;;;;;;5135796;28;20138;-11
2022/10/24 06:30:39;;;;;;;1.55;1.10;;;19.60;55.10;;;;;;5136187;28;20059;-11
2022/10/24 06:33:05;;;;;;;3.03;1.10;;;19.60;55.10;;;;;;5136064;28;20057;-11
2022/10/24 06:35:30;;;;;;;1.30;1.20;;;19.60;55.20;;;;;;5136303;28;20138;-11
2022/10/24 06:37:57;;;;;;;1.77;1.52;;;19.60;55.20;;;;;;5135724;28;20051;-11
2022/10/24 06:40:24;;;;;;;1.35;1.00;;;19.50;55.10;;;;;;5135986;28;20057;-11
2022/10/24 06:42:50;;;;;;;1.25;1.10;;;19.50;55.20;;;;;;5135772;28;20913;-11
2022/10/24 06:45:17;;;;;;;2.20;1.13;;;19.50;55.30;;;;;;5116132;28;20479;-11
2022/10/24 06:47:43;;;;;;;2.15;1.40;;;19.50;55.30;;;;;;5135542;28;20061;-11
2022/10/24 06:50:08;;;;;;;1.70;1.23;;;19.50;55.30;;;;;;5116758;28;20142;-11
2022/10/24 06:52:35;;;;;;;1.35;1.20;;;19.50;55.30;;;;;;5135818;28;20058;-11
2022/10/24 06:55:01;;;;;;;1.20;1.10;;;19.50;55.30;;;;;;5135547;28;20145;-11
2022/10/24 06:57:26;;;;;;;1.48;1.00;;;19.50;55.30;;;;;;5135532;28;20130;-11
2022/10/24 06:59:52;;;;;;;1.83;1.20;;;19.60;55.20;;;;;;5135736;28;20055;-11
2022/10/24 07:02:18;;;;;;;2.20;1.05;;;19.60;55.10;;;;;;5135689;28;20481;-11
2022/10/24 07:04:43;;;;;;;1.70;1.25;;;19.60;55.10;;;;;;5135429;28;20047;-11
2022/10/24 07:07:18;;;;;;;1.20;1.10;;;19.60;55.10;;;;;;5135302;28;20051;-11
2022/10/24 07:09:44;;;;;;;1.35;1.25;;;19.70;55.10;;;;;;5135045;28;20050;-11
2022/10/24 07:12:10;;;;;;;1.20;1.08;;;19.70;55.10;;;;;;5133816;27;20093;-11
2022/10/24 07:14:36;;;;;;;1.27;1.05;;;19.70;55.10;;;;;;5135375;28;20136;-12
2022/10/24 07:17:02;;;;;;;2.50;1.30;;;19.70;55.00;;;;;;5135205;28;20065;-11
2022/10/24 07:19:28;;;;;;;1.90;1.00;;;19.70;55.00;;;;;;5135115;28;20054;-10
2022/10/24 07:21:54;;;;;;;3.72;1.40;;;19.70;55.00;;;;;;5135051;28;20055;-10
2022/10/24 07:24:21;;;;;;;2.50;1.27;;;19.70;54.90;;;;;;5135358;28;20201;-10
2022/10/24 07:26:47;;;;;;;0.90;0.90;;;19.70;54.80;;;;;;5134836;28;20080;-10
2022/10/24 07:29:12;;;;;;;3.40;1.35;;;19.80;54.80;;;;;;5134940;28;20056;-10
2022/10/24 07:31:38;;;;;;;3.67;1.33;;;19.80;54.70;;;;;;5135500;28;20055;-10
2022/10/24 07:34:07;;;;;;;1.50;1.25;;;19.90;54.60;;;;;;5135167;28;20483;-10
2022/10/24 07:36:33;;;;;;;1.55;0.80;;;19.90;54.60;;;;;;5135108;28;20047;-10
2022/10/24 07:38:59;;;;;;;1.10;1.00;;;19.80;54.60;;;;;;5134742;28;20051;-10
2022/10/24 07:41:27;;;;;;;3.05;1.30;;;19.80;54.70;;;;;;5135223;28;20051;-10
2022/10/24 07:43:54;;;;;;;3.13;1.10;;;19.80;54.70;;;;;;5134907;28;20050;-10
2022/10/24 07:46:20;;;;;;;2.17;1.20;;;19.80;54.70;;;;;;5134908;28;20047;-10
2022/10/24 07:48:51;;;;;;;3.00;1.10;;;19.80;54.70;;;;;;5115507;28;20075;-10
2022/10/24 07:51:17;;;;;;;2.78;1.40;;;19.90;54.80;;;;;;5134681;28;20051;-10
2022/10/24 07:53:43;;;;;;;3.70;1.10;;;19.90;54.80;;;;;;5135310;28;20057;-10
2022/10/24 07:56:13;;;;;;;1.73;1.20;;;19.90;54.70;;;;;;5114508;28;20050;-10
2022/10/24 07:58:39;;;;;;;2.92;1.08;;;19.90;54.70;;;;;;5135182;28;20058;-10
2022/10/24 08:01:11;;;;;;;1.80;1.40;;;19.90;54.70;;;;;;5135051;28;20097;-10
2022/10/24 08:03:37;;;;;;;1.20;1.10;;;19.90;54.70;;;;;;5134673;28;20039;-10
2022/10/24 08:06:07;;;;;;;1.30;1.20;;;19.90;54.70;;;;;;5134333;28;20551;-10
2022/10/24 08:08:34;;;;;;;2.28;1.13;;;19.90;54.70;;;;;;5134595;28;20055;-10
2022/10/24 08:11:00;;;;;;;1.52;1.00;;;19.90;54.70;;;;;;5134313;28;20096;-11
2022/10/24 08:13:26;;;;;;;2.05;1.20;;;19.90;54.70;;;;;;5134327;28;20479;-10
2022/10/24 08:15:51;;;;;;;1.77;1.27;;;19.90;54.70;;;;;;5134134;28;20057;-10
2022/10/24 08:18:17;;;;;;;1.40;1.13;;;19.90;54.70;;;;;;5134380;28;20043;-10
2022/10/24 08:20:43;;;;;;;2.55;1.30;;;19.90;54.70;;;;;;5134591;28;20067;-10
2022/10/24 08:23:09;;;;;;;1.45;1.10;;;19.90;54.80;;;;;;5134068;27;20073;-10
2022/10/24 08:25:39;;;;;;;3.65;1.58;;;19.90;54.70;;;;;;5134398;28;20043;-10
2022/10/24 08:28:04;;;;;;;1.45;1.35;;;19.90;54.70;;;;;;5133579;28;20054;-10
2022/10/24 08:30:31;;;;;;;3.75;1.33;;;19.90;54.70;;;;;;5133889;28;20055;-10
2022/10/24 08:32:58;;;;;;;2.10;1.30;;;19.90;54.70;;;;;;5133837;28;20490;-10
2022/10/24 08:35:25;;;;;;;3.10;1.10;;;19.90;54.80;;;;;;5134261;28;20077;-11
2022/10/24 08:37:51;;;;;;;3.03;1.30;;;19.80;54.80;;;;;;5134139;28;20051;-10
2022/10/24 08:40:18;;;;;;;2.13;1.20;;;19.80;54.90;;;;;;5134308;28;20051;-10
2022/10/24 08:42:45;;;;;;;1.00;1.00;;;19.80;54.90;;;;;;5133890;28;20483;-10
2022/10/24 08:45:33;;;;;;;2.67;1.35;;;19.80;54.90;;;;;;5133875;28;20138;-10
2022/10/24 08:48:13;;;;;;;2.58;1.25;;;19.80;55.00;;;;;;5134255;28;20051;-11
2022/10/24 08:50:44;;;;;;;1.30;1.20;;;19.80;55.10;;;;;;5133843;28;20524;-11
2022/10/24 08:53:18;;;;;;;1.90;1.20;;;19.80;55.10;;;;;;5134085;28;20077;-11
2022/10/24 08:55:53;;;;;;;2.30;1.17;;;19.80;55.10;;;;;;5133849;28;20047;-11
2022/10/24 08:58:35;;;;;;;1.85;1.40;;;19.70;55.10;;;;;;5133641;28;20578;-11
2022/10/24 09:01:05;;;;;;;1.85;1.20;;;19.70;55.20;;;;;;5133444;28;20059;-11
2022/10/24 09:03:32;;;;;;;2.50;1.50;;;19.70;55.20;;;;;;5116000;28;20159;-11
2022/10/24 09:06:05;;;;;;;1.80;1.10;;;19.70;55.20;;;;;;5133695;28;20047;-11
2022/10/24 09:08:55;;;;;;;2.65;1.20;;;19.70;55.30;;;;;;5133522;28;20055;-11
2022/10/24 09:11:35;;;;;;;3.25;1.20;;;19.70;55.40;;;;;;5133596;28;20139;-11
2022/10/24 09:14:11;;;;;;;1.08;0.90;;;19.70;55.40;;;;;;5133903;28;20043;-11
2022/10/24 09:16:39;;;;;;;2.75;1.20;;;19.70;55.40;;;;;;5133262;28;20123;-11
2022/10/24 09:19:08;;;;;;;1.98;1.40;;;19.70;55.40;;;;;;5133565;28;20051;-11
2022/10/24 09:21:34;;;;;;;2.63;1.13;;;19.70;55.40;;;;;;5133425;28;20506;-11
2022/10/24 09:24:00;;;;;;;1.63;1.50;;;19.70;55.30;;;;;;5133341;28;20055;-11
2022/10/24 09:26:30;;;;;;;2.78;1.52;;;19.70;55.40;;;;;;5133501;28;20483;-11
2022/10/24 09:28:56;;;;;;;4.13;1.52;;;19.70;55.30;;;;;;5133298;28;20047;-11
2022/10/24 09:31:24;;;;;;;3.17;1.60;;;19.70;55.30;;;;;;5133147;28;20043;-11
2022/10/24 09:33:52;;;;;;;1.50;1.38;;;19.70;55.30;;;;;;5132729;28;20050;-11
2022/10/24 09:36:19;;;;;;;2.92;1.58;;;19.70;55.30;;;;;;5133842;28;20095;-11
2022/10/24 09:38:47;;;;;;;1.95;1.50;;;19.70;55.30;;;;;;5133459;28;20391;-11
2022/10/24 09:41:23;;;;;;;1.98;1.25;;;19.70;55.30;;;;;;5133094;28;20448;-11
2022/10/24 09:43:54;;;;;;;2.28;1.42;;;19.80;55.30;;;;;;5133438;28;20070;-11
2022/10/24 09:46:25;;;;;;;2.13;1.45;;;19.80;55.30;;;;;;5133490;27;20051;-11
2022/10/24 09:48:55;;;;;;;1.98;1.30;;;19.80;55.20;;;;;;5133591;28;20188;-11
2022/10/24 09:51:32;;;;;;;1.27;1.05;;;19.80;55.30;;;;;;5133536;28;20051;-11
2022/10/24 09:54:16;;;;;;;1.50;1.20;;;19.80;55.30;;;;;;5133463;28;20376;-11
2022/10/24 09:56:43;;;;;;;2.42;1.40;;;19.80;55.30;;;;;;5133122;28;20043;-11
2022/10/24 09:59:27;;;;;;;1.63;1.20;;;19.80;55.20;;;;;;5132865;28;20055;-11
2022/10/24 10:02:06;;;;;;;2.25;1.42;;;19.80;55.20;;;;;;5133425;28;20051;-11
2022/10/24 10:04:32;;;;;;;4.07;1.40;;;19.80;55.20;;;;;;5133057;28;20047;-11
2022/10/24 10:06:58;;;;;;;2.47;1.50;;;19.80;55.10;;;;;;5133161;28;20054;-11
2022/10/24 10:09:34;;;;;;;2.00;1.42;;;19.80;55.20;;;;;;5133014;28;20487;-11
2022/10/24 10:12:00;;;;;;;3.90;1.50;;;19.80;55.20;;;;;;5132939;28;20513;-11
2022/10/24 10:14:28;;;;;;;2.55;1.30;;;19.80;55.20;;;;;;5132915;28;20074;-11
2022/10/24 10:17:05;;;;;;;2.15;1.23;;;19.80;55.10;;;;;;5132361;28;20043;-12
2022/10/24 10:19:36;;;;;;;1.98;1.30;;;19.90;55.20;;;;;;5132577;28;20047;-11
2022/10/24 10:22:05;;;;;;;2.97;1.50;;;19.90;55.30;;;;;;5132404;28;20521;-11
2022/10/24 10:24:34;;;;;;;2.38;1.50;;;19.80;55.20;;;;;;5132500;28;20051;-11
2022/10/24 10:27:00;;;;;;;2.80;1.35;;;19.90;55.20;;;;;;5132826;28;20532;-11
2022/10/24 10:29:26;;;;;;;2.13;1.23;;;19.90;55.20;;;;;;5132374;28;20137;-11
2022/10/24 10:32:01;;;;;;;1.70;1.35;;;19.80;55.30;;;;;;5132664;28;20163;-11
2022/10/24 10:34:41;;;;;;;2.00;1.67;;;19.90;55.30;;;;;;5132541;28;20051;-11
2022/10/24 10:37:34;;;;;;;2.55;1.50;;;19.90;55.40;;;;;;5132313;28;20473;-11
2022/10/24 10:40:14;;;;;;;2.60;1.40;;;19.90;55.40;;;;;;5132282;28;20149;-11
2022/10/24 10:43:14;;;;;;;2.92;1.90;;;19.90;55.40;;;;;;5132243;28;20522;-11
2022/10/24 10:45:45;;;;;;;1.70;1.60;;;19.90;55.30;;;;;;5116754;28;20471;-11
2022/10/24 10:48:41;;;;;;;1.90;1.50;;;19.90;55.30;;;;;;5136648;28;20051;-11
2022/10/24 10:51:39;;;;;;;1.83;1.30;;;19.90;55.40;;;;;;5135841;28;20051;-11
2022/10/24 10:54:26;;;;;;;2.17;1.17;;;19.90;55.40;;;;;;5136220;28;20400;-11
2022/10/24 10:57:20;;;;;;;1.75;1.35;;;19.90;55.40;;;;;;5135562;28;20185;-12
2022/10/24 11:00:06;;;;;;;1.50;1.40;;;19.90;55.30;;;;;;5099777;28;20487;-11
2022/10/24 11:02:46;;;;;;;2.45;1.30;;;19.90;55.30;;;;;;5135277;28;20129;-11
2022/10/24 11:05:45;;;;;;;1.73;1.15;;;19.80;55.30;;;;;;5134605;28;20482;-12
2022/10/24 11:08:29;;;;;;;2.90;1.60;;;19.90;55.40;;;;;;5135467;28;20053;-11
2022/10/24 11:11:02;;;;;;;2.95;1.55;;;19.90;55.40;;;;;;5135500;28;20138;-10
2022/10/24 11:13:42;;;;;;;2.92;1.60;;;19.90;55.40;;;;;;5135356;28;20126;-11
2022/10/24 11:16:16;;;;;;;1.40;1.30;;;19.90;55.40;;;;;;5135295;28;20169;-10
2022/10/24 11:18:46;;;;;;;1.75;1.60;;;19.90;55.40;;;;;;5135511;28;20043;-11
2022/10/24 11:21:13;;;;;;;2.80;1.58;;;19.90;55.40;;;;;;5132792;28;20585;-11
2022/10/24 11:24:03;;;;;;;2.05;1.45;;;19.90;55.40;;;;;;5133257;28;20126;-11
2022/10/24 11:26:42;;;;;;;2.03;1.83;;;19.90;55.40;;;;;;5133802;28;20062;-11
2022/10/24 11:29:28;;;;;;;4.57;1.52;;;19.90;55.40;;;;;;5134504;28;20039;-10
2022/10/24 11:32:14;;;;;;;2.95;1.73;;;19.90;55.40;;;;;;5134911;28;20055;-10
2022/10/24 11:34:49;;;;;;;2.03;1.23;;;19.90;55.40;;;;;;5134683;28;20139;-10
2022/10/24 11:37:32;;;;;;;3.42;1.58;;;19.90;55.40;;;;;;5135434;28;20415;-10
2022/10/24 11:40:10;;;;;;;1.80;1.52;;;19.90;55.40;;;;;;5134875;28;20078;-10
2022/10/24 11:42:43;;;;;;;2.40;1.70;;;19.90;55.40;;;;;;5135599;28;20051;-10
2022/10/24 11:45:16;;;;;;;3.30;1.60;;;19.90;55.40;;;;;;5134697;28;20059;-10
2022/10/24 11:47:47;;;;;;;2.50;1.70;;;19.90;55.40;;;;;;5135185;28;20138;-10
2022/10/24 11:50:43;;;;;;;1.48;1.38;;;19.90;55.50;;;;;;5134859;28;20130;-10
2022/10/24 11:53:31;;;;;;;2.15;1.50;;;19.80;55.50;;;;;;5135012;28;20070;-10
2022/10/24 11:56:02;;;;;;;3.97;1.60;;;19.80;55.50;;;;;;5134792;28;20047;-10
2022/10/24 11:58:30;;;;;;;1.50;1.17;;;19.80;55.60;;;;;;5134124;27;20512;-10
2022/10/24 12:01:18;;;;;;;2.65;1.65;;;19.80;55.60;;;;;;5134783;28;20078;-10
2022/10/24 12:04:04;;;;;;;2.38;1.40;;;19.80;55.60;;;;;;5135115;28;20100;-10
2022/10/24 12:06:58;;;;;;;2.72;1.48;;;19.80;55.60;;;;;;5135072;28;20483;-11
2022/10/24 12:09:29;;;;;;;2.15;1.65;;;19.80;55.60;;;;;;5134913;28;20046;-10
2022/10/24 12:12:17;;;;;;;2.88;1.50;;;19.80;55.60;;;;;;5134710;28;20075;-11
2022/10/24 12:15:11;;;;;;;2.70;1.58;;;19.80;55.60;;;;;;5134826;28;20130;-10
2022/10/24 12:17:49;;;;;;;1.52;1.38;;;19.80;55.60;;;;;;5133542;28;20095;-10
2022/10/24 12:20:19;;;;;;;2.78;1.40;;;19.90;55.60;;;;;;5134719;28;20060;-10
2022/10/24 12:22:46;;;;;;;1.83;1.58;;;19.90;55.60;;;;;;5134507;28;20055;-10
2022/10/24 12:25:31;;;;;;;2.20;1.65;;;19.90;55.50;;;;;;5134522;28;20058;-10
2022/10/24 12:28:00;;;;;;;2.33;1.20;;;19.90;55.50;;;;;;5134263;28;20126;-10
2022/10/24 12:30:31;;;;;;;2.30;1.52;;;19.90;55.50;;;;;;5134299;28;20074;-10
2022/10/24 12:32:58;;;;;;;;;;;19.80;55.60;;;;;;5134525;28;20065;-10
2022/10/24 12:35:34;;;;;;;4.18;1.77;;;19.90;55.60;;;;;;5134246;28;19976;-10
2022/10/24 12:38:12;;;;;;;1.70;1.40;;;19.80;55.50;;;;;;5134028;28;20055;-10
2022/10/24 12:40:51;;;;;;;2.83;1.30;;;19.90;55.60;;;;;;5134257;28;20112;-10
2022/10/24 12:43:26;;;;;;;2.88;1.40;;;19.80;55.60;;;;;;5134383;28;20394;-10
2022/10/24 12:45:52;;;;;;;3.13;1.83;;;19.80;55.60;;;;;;5134064;28;20051;-10
2022/10/24 12:48:32;;;;;;;2.60;1.73;;;19.80;55.70;;;;;;5133949;28;20054;-10
2022/10/24 12:51:25;;;;;;;2.85;1.70;;;19.80;55.70;;;;;;5134046;28;20045;-10
2022/10/24 12:54:11;;;;;;;3.60;1.45;;;19.80;55.70;;;;;;5133776;28;20089;-11
2022/10/24 12:56:52;;;;;;;1.85;1.35;;;19.80;55.70;;;;;;5133882;28;20102;-10
2022/10/24 12:59:29;;;;;;;2.17;1.50;;;19.80;55.70;;;;;;5134191;28;20524;-10
2022/10/24 13:02:36;;;;;;;3.55;1.35;;;19.80;55.70;;;;;;5134225;28;20547;-10
2022/10/24 13:05:32;;;;;;;1.92;1.70;;;19.80;55.70;;;;;;5101598;28;20058;-10
2022/10/24 13:08:11;;;;;;;1.90;1.48;;;19.80;55.60;;;;;;5134117;27;20137;-11